Maria L — D5MV9 — position and weather

sailwx.info

Track history (hours):
 
Tides and Currents Weather Stations Pressure Air Temp Water Temp Dewpoint Dewpoint Depression Visibility Wind Speed Wind Dir Waves Ship Positions

Maria L

Last reported at 2017-Sep-14 12:03 UTC. Time now 2017-Sep-19 22:38 UTC.
Position N 37°48' E 025°44'.

MMSI: 636017823.

Date/timePositionNaut miles runAvg speedWind from/ knotsBaromVisibWave heightAir tempDewpointWater temp
2017-Sep-14 12:03N 37°48' E 025°44'010.7
2017-Sep-14 12:01N 37°48' E 025°44'510.0
2017-Sep-14 11:31N 37°44' E 025°41'510.9
2017-Sep-14 11:01N 37°38' E 025°40'510.5
2017-Sep-14 10:31N 37°33' E 025°40'510.1
2017-Sep-14 10:01N 37°28' E 025°39'5 9.6
2017-Sep-14 09:31N 37°23' E 025°39'5 9.4
2017-Sep-14 09:01N 37°21' E 025°33'611.2
2017-Sep-14 08:31N 37°20' E 025°27'611.3
2017-Sep-14 08:01N 37°18' E 025°20'611.4
2017-Sep-14 07:31N 37°17' E 025°13'611.3
2017-Sep-14 07:01N 37°16' E 025°06'5 9.9
2017-Sep-14 06:30N 37°14' E 025°00'510.7
2017-Sep-14 06:01N 37°09' E 024°57'5610.4
2017-Sep-14 00:40N 36°28' E 024°10'211.8
2017-Sep-14 00:29N 36°27' E 024°08'611.6
2017-Sep-13 23:58N 36°23' E 024°02'611.8
2017-Sep-13 23:30N 36°21' E 023°56'1711.3
2017-Sep-13 22:01N 36°13' E 023°38'111.2
2017-Sep-13 21:56N 36°12' E 023°37'42311.5
2017-Sep-12 09:09N 36°12' E 014°52'611.9
2017-Sep-12 08:39N 36°15' E 014°46'211.8
2017-Sep-12 08:30N 36°15' E 014°44'611.8
2017-Sep-12 08:00N 36°17' E 014°37'612.1
2017-Sep-12 07:30N 36°20' E 014°30'612.2
2017-Sep-12 07:00N 36°23' E 014°24'612.6
2017-Sep-12 06:31N 36°25' E 014°17'713.0
2017-Sep-12 06:00N 36°28' E 014°09'713.1
2017-Sep-12 05:30N 36°31' E 014°02'713.1
2017-Sep-12 04:58N 36°34' E 013°54'612.8
2017-Sep-12 04:28N 36°37' E 013°47'  
2017-Sep-09 18:34N 37°01' E 001°06'111.3
2017-Sep-09 18:30N 37°01' E 001°05'3011.6
2017-Sep-09 15:57N 36°53' E 000°29'511.9
2017-Sep-09 15:31N 36°52' E 000°23'611.9
2017-Sep-09 15:01N 36°51' E 000°16'611.9
2017-Sep-09 14:30N 36°49' E 000°08'612.0
2017-Sep-09 13:59N 36°48' E 000°01'612.1
2017-Sep-09 13:28N 36°46' W 000°07'612.2
2017-Sep-09 12:58N 36°45' W 000°14'612.0
2017-Sep-09 12:28N 36°43' W 000°21'10 9.7
2017-Sep-09 11:28N 36°42' W 000°33'5 8.4
2017-Sep-09 10:53N 36°41' W 000°39'3 7.4
2017-Sep-09 10:26N 36°40' W 000°43'3 7.6
2017-Sep-09 10:00N 36°40' W 000°48'5 7.9
2017-Sep-09 09:24N 36°39' W 000°53'5 8.2
2017-Sep-09 08:49N 36°37' W 000°59'3 8.3
2017-Sep-09 08:27N 36°37' W 001°03'22 1.6
2017-Sep-08 18:26N 36°34' W 001°30'17310.1
2017-Sep-08 01:21N 35°59' W 004°59'3 7.2
2017-Sep-08 00:59N 35°58' W 005°02'2 0.6
2017-Sep-07 21:59N 35°57' W 005°01'0 0.5
2017-Sep-07 21:26N 35°57' W 005°01'1 0.3
2017-Sep-07 19:05N 35°57' W 004°60'0 0.2
2017-Sep-07 18:59N 35°57' W 004°60'0 0.2
2017-Sep-07 18:26N 35°57' W 004°60'1 0.7
2017-Sep-07 17:41N 35°57' W 005°00'0 2.0
2017-Sep-07 17:29N 35°57' W 005°01'3 5.5
2017-Sep-07 17:00N 35°58' W 005°04'612.2
2017-Sep-07 16:30N 36°00' W 005°11'611.8
2017-Sep-07 16:00N 36°04' W 005°17'5 9.6
2017-Sep-07 15:27N 36°06' W 005°22'1 1.9
2017-Sep-07 14:52N 36°07' W 005°22'0 0.1
2017-Sep-07 14:28N 36°07' W 005°22'0 0.1
2017-Sep-07 13:55N 36°07' W 005°22'0 0.1
2017-Sep-07 13:28N 36°07' W 005°22'0 0.0
2017-Sep-07 12:55N 36°07' W 005°22'0 0.1
2017-Sep-07 12:28N 36°07' W 005°22'0 0.3
2017-Sep-07 11:58N 36°07' W 005°22'0 0.0
2017-Sep-07 08:52N 36°07' W 005°22'0 0.2
2017-Sep-07 07:25N 36°07' W 005°21'0 0.3
2017-Sep-07 06:59N 36°07' W 005°21'1 2.1
2017-Sep-07 06:30N 36°06' W 005°22'3 6.1
2017-Sep-07 06:00N 36°04' W 005°20'4 8.4
2017-Sep-07 05:30N 35°60' W 005°22'612.1
2017-Sep-07 05:00N 35°58' W 005°29'611.4
2017-Sep-07 04:30N 35°56' W 005°35'611.1
2017-Sep-07 03:57N 35°55' W 005°43'134 9.7
2017-Sep-06 14:10N 36°23' W 008°25'311.8
2017-Sep-06 13:57N 36°23' W 008°28'711.7
2017-Sep-06 13:22N 36°25' W 008°36'411.6
2017-Sep-06 13:00N 36°26' W 008°41'611.3
2017-Sep-06 12:30N 36°28' W 008°48'611.5
2017-Sep-06 12:00N 36°29' W 008°55'611.5
2017-Sep-06 11:30N 36°30' W 009°02'711.4
2017-Sep-06 10:56N 36°32' W 009°10'2210.9
2017-Sep-06 08:54N 36°46' W 009°31'1011.4
2017-Sep-06 08:01N 36°55' W 009°35'411.9
2017-Sep-06 07:43N 36°59' W 009°36'1812.0
2017-Sep-06 06:12N 37°17' W 009°42'212.3
2017-Sep-06 06:00N 37°19' W 009°42'2411.9
2017-Sep-06 04:01N 37°42' W 009°49'011.1
2017-Sep-06 04:00N 37°42' W 009°49'811.4
2017-Sep-06 03:16N 37°50' W 009°51'811.8
2017-Sep-06 02:35N 37°58' W 009°54'112.3
2017-Sep-06 02:30N 37°59' W 009°54'611.7
2017-Sep-06 02:00N 38°05' W 009°56'611.6
2017-Sep-06 01:29N 38°11' W 009°57'611.7
2017-Sep-06 01:00N 38°16' W 009°59'612.1
2017-Sep-06 00:30N 38°22' W 010°01'612.3
2017-Sep-06 00:00N 38°28' W 010°02'612.1
2017-Sep-05 23:30N 38°34' W 010°04'612.4
2017-Sep-05 23:00N 38°40' W 010°06'612.2
2017-Sep-05 22:30N 38°46' W 010°06'612.1
2017-Sep-05 22:00N 38°52' W 010°07'612.0
2017-Sep-05 21:30N 38°58' W 010°06'612.4
2017-Sep-05 21:00N 39°04' W 010°06'612.1
2017-Sep-05 20:30N 39°10' W 010°06'612.4
2017-Sep-05 20:00N 39°17' W 010°06'612.4
2017-Sep-05 19:30N 39°23' W 010°06'612.3
2017-Sep-05 19:00N 39°29' W 010°06'812.1
2017-Sep-05 18:19N 39°37' W 010°07'412.2
2017-Sep-05 17:59N 39°41' W 010°07'612.2
2017-Sep-05 17:30N 39°47' W 010°07'812.3
2017-Sep-05 16:50N 39°55' W 010°07'  
Track history (hours):
 
Tides and Currents Weather Stations Pressure Air Temp Water Temp Dewpoint Dewpoint Depression Visibility Wind Speed Wind Dir Waves Ship Positions

Maria L

Last reported at 2017-Sep-14 12:03 UTC. Time now 2017-Sep-19 22:38 UTC.
Position N 37°48' E 025°44'.

MMSI: 636017823.

Date/timePositionNaut miles runAvg speedWind from/ knotsBaromVisibWave heightAir tempDewpointWater temp
2017-Sep-14 12:03N 37°48' E 025°44'010.7
2017-Sep-14 12:01N 37°48' E 025°44'510.0
2017-Sep-14 11:31N 37°44' E 025°41'510.9
2017-Sep-14 11:01N 37°38' E 025°40'510.5
2017-Sep-14 10:31N 37°33' E 025°40'510.1
2017-Sep-14 10:01N 37°28' E 025°39'5 9.6
2017-Sep-14 09:31N 37°23' E 025°39'5 9.4
2017-Sep-14 09:01N 37°21' E 025°33'611.2
2017-Sep-14 08:31N 37°20' E 025°27'611.3
2017-Sep-14 08:01N 37°18' E 025°20'611.4
2017-Sep-14 07:31N 37°17' E 025°13'611.3
2017-Sep-14 07:01N 37°16' E 025°06'5 9.9
2017-Sep-14 06:30N 37°14' E 025°00'510.7
2017-Sep-14 06:01N 37°09' E 024°57'5610.4
2017-Sep-14 00:40N 36°28' E 024°10'211.8
2017-Sep-14 00:29N 36°27' E 024°08'611.6
2017-Sep-13 23:58N 36°23' E 024°02'611.8
2017-Sep-13 23:30N 36°21' E 023°56'1711.3
2017-Sep-13 22:01N 36°13' E 023°38'111.2
2017-Sep-13 21:56N 36°12' E 023°37'42311.5
2017-Sep-12 09:09N 36°12' E 014°52'611.9
2017-Sep-12 08:39N 36°15' E 014°46'211.8
2017-Sep-12 08:30N 36°15' E 014°44'611.8
2017-Sep-12 08:00N 36°17' E 014°37'612.1
2017-Sep-12 07:30N 36°20' E 014°30'612.2
2017-Sep-12 07:00N 36°23' E 014°24'612.6
2017-Sep-12 06:31N 36°25' E 014°17'713.0
2017-Sep-12 06:00N 36°28' E 014°09'713.1
2017-Sep-12 05:30N 36°31' E 014°02'713.1
2017-Sep-12 04:58N 36°34' E 013°54'612.8
2017-Sep-12 04:28N 36°37' E 013°47'  
2017-Sep-09 18:34N 37°01' E 001°06'111.3
2017-Sep-09 18:30N 37°01' E 001°05'3011.6
2017-Sep-09 15:57N 36°53' E 000°29'511.9
2017-Sep-09 15:31N 36°52' E 000°23'611.9
2017-Sep-09 15:01N 36°51' E 000°16'611.9
2017-Sep-09 14:30N 36°49' E 000°08'612.0
2017-Sep-09 13:59N 36°48' E 000°01'612.1
2017-Sep-09 13:28N 36°46' W 000°07'612.2
2017-Sep-09 12:58N 36°45' W 000°14'612.0
2017-Sep-09 12:28N 36°43' W 000°21'10 9.7
2017-Sep-09 11:28N 36°42' W 000°33'5 8.4
2017-Sep-09 10:53N 36°41' W 000°39'3 7.4
2017-Sep-09 10:26N 36°40' W 000°43'3 7.6
2017-Sep-09 10:00N 36°40' W 000°48'5 7.9
2017-Sep-09 09:24N 36°39' W 000°53'5 8.2
2017-Sep-09 08:49N 36°37' W 000°59'3 8.3
2017-Sep-09 08:27N 36°37' W 001°03'22 1.6
2017-Sep-08 18:26N 36°34' W 001°30'17310.1
2017-Sep-08 01:21N 35°59' W 004°59'3 7.2
2017-Sep-08 00:59N 35°58' W 005°02'2 0.6
2017-Sep-07 21:59N 35°57' W 005°01'0 0.5
2017-Sep-07 21:26N 35°57' W 005°01'1 0.3
2017-Sep-07 19:05N 35°57' W 004°60'0 0.2
2017-Sep-07 18:59N 35°57' W 004°60'0 0.2
2017-Sep-07 18:26N 35°57' W 004°60'1 0.7
2017-Sep-07 17:41N 35°57' W 005°00'0 2.0
2017-Sep-07 17:29N 35°57' W 005°01'3 5.5
2017-Sep-07 17:00N 35°58' W 005°04'612.2
2017-Sep-07 16:30N 36°00' W 005°11'611.8
2017-Sep-07 16:00N 36°04' W 005°17'5 9.6
2017-Sep-07 15:27N 36°06' W 005°22'1 1.9
2017-Sep-07 14:52N 36°07' W 005°22'0 0.1
2017-Sep-07 14:28N 36°07' W 005°22'0 0.1
2017-Sep-07 13:55N 36°07' W 005°22'0 0.1
2017-Sep-07 13:28N 36°07' W 005°22'0 0.0
2017-Sep-07 12:55N 36°07' W 005°22'0 0.1
2017-Sep-07 12:28N 36°07' W 005°22'0 0.3
2017-Sep-07 11:58N 36°07' W 005°22'0 0.0
2017-Sep-07 08:52N 36°07' W 005°22'0 0.2
2017-Sep-07 07:25N 36°07' W 005°21'0 0.3
2017-Sep-07 06:59N 36°07' W 005°21'1 2.1
2017-Sep-07 06:30N 36°06' W 005°22'3 6.1
2017-Sep-07 06:00N 36°04' W 005°20'4 8.4
2017-Sep-07 05:30N 35°60' W 005°22'612.1
2017-Sep-07 05:00N 35°58' W 005°29'611.4
2017-Sep-07 04:30N 35°56' W 005°35'611.1
2017-Sep-07 03:57N 35°55' W 005°43'134 9.7
2017-Sep-06 14:10N 36°23' W 008°25'311.8
2017-Sep-06 13:57N 36°23' W 008°28'711.7
2017-Sep-06 13:22N 36°25' W 008°36'411.6
2017-Sep-06 13:00N 36°26' W 008°41'611.3
2017-Sep-06 12:30N 36°28' W 008°48'611.5
2017-Sep-06 12:00N 36°29' W 008°55'611.5
2017-Sep-06 11:30N 36°30' W 009°02'711.4
2017-Sep-06 10:56N 36°32' W 009°10'2210.9
2017-Sep-06 08:54N 36°46' W 009°31'1011.4
2017-Sep-06 08:01N 36°55' W 009°35'411.9
2017-Sep-06 07:43N 36°59' W 009°36'1812.0
2017-Sep-06 06:12N 37°17' W 009°42'212.3
2017-Sep-06 06:00N 37°19' W 009°42'2411.9
2017-Sep-06 04:01N 37°42' W 009°49'011.1
2017-Sep-06 04:00N 37°42' W 009°49'811.4
2017-Sep-06 03:16N 37°50' W 009°51'811.8
2017-Sep-06 02:35N 37°58' W 009°54'112.3
2017-Sep-06 02:30N 37°59' W 009°54'611.7
2017-Sep-06 02:00N 38°05' W 009°56'611.6
2017-Sep-06 01:29N 38°11' W 009°57'611.7
2017-Sep-06 01:00N 38°16' W 009°59'612.1
2017-Sep-06 00:30N 38°22' W 010°01'612.3
2017-Sep-06 00:00N 38°28' W 010°02'612.1
2017-Sep-05 23:30N 38°34' W 010°04'612.4
2017-Sep-05 23:00N 38°40' W 010°06'612.2
2017-Sep-05 22:30N 38°46' W 010°06'612.1
2017-Sep-05 22:00N 38°52' W 010°07'612.0
2017-Sep-05 21:30N 38°58' W 010°06'612.4
2017-Sep-05 21:00N 39°04' W 010°06'612.1
2017-Sep-05 20:30N 39°10' W 010°06'612.4
2017-Sep-05 20:00N 39°17' W 010°06'612.4
2017-Sep-05 19:30N 39°23' W 010°06'612.3
2017-Sep-05 19:00N 39°29' W 010°06'812.1
2017-Sep-05 18:19N 39°37' W 010°07'412.2
2017-Sep-05 17:59N 39°41' W 010°07'612.2
2017-Sep-05 17:30N 39°47' W 010°07'812.3
2017-Sep-05 16:50N 39°55' W 010°07'  

Dump ship's entire track history